createdAt,value
2022-12-11T00:01:13.340Z,92593.28
2022-12-11T00:03:17.292Z,92606.31
2022-12-11T00:05:19.017Z,92609.31
2022-12-11T00:07:20.703Z,92593.59
2022-12-11T00:09:22.788Z,92602.06
2022-12-11T00:11:24.526Z,92595.19
2022-12-11T00:13:26.142Z,92609.47
2022-12-11T00:15:28.388Z,92607.69
2022-12-11T00:17:30.023Z,92589.88
2022-12-11T00:19:31.635Z,92576.44
2022-12-11T00:21:33.983Z,92588.50
2022-12-11T00:23:36.299Z,92587.50
2022-12-11T00:25:45.284Z,92589.16
2022-12-11T00:27:47.406Z,92597.81
2022-12-11T00:29:48.998Z,92600.28
2022-12-11T00:31:50.703Z,92587.09
2022-12-11T00:33:52.600Z,92607.22
2022-12-11T00:35:54.182Z,92603.63
2022-12-11T00:37:55.853Z,92596.59
2022-12-11T00:39:57.404Z,92583.72
2022-12-11T00:41:59.111Z,92582.34
2022-12-11T00:44:00.999Z,92585.13
2022-12-11T00:46:03.325Z,92588.06
2022-12-11T00:48:05.468Z,92587.41
2022-12-11T00:50:07.655Z,92565.38
2022-12-11T00:52:10.912Z,92593.53
2022-12-11T00:54:12.537Z,92589.47
2022-12-11T00:56:19.362Z,92563.72
2022-12-11T00:58:21.310Z,92562.91
2022-12-11T01:00:23.153Z,92576.81
2022-12-11T01:02:24.794Z,92586.06
2022-12-11T01:04:26.469Z,92574.00
2022-12-11T01:06:28.810Z,92565.94
2022-12-11T01:08:35.375Z,92584.69
2022-12-11T01:10:40.041Z,92596.59
2022-12-11T01:12:41.694Z,92587.34
2022-12-11T01:14:43.315Z,92574.19
2022-12-11T01:16:44.978Z,92582.25
2022-12-11T01:18:46.639Z,92581.03
2022-12-11T01:20:48.227Z,92619.47
2022-12-11T01:22:52.774Z,92611.41
2022-12-11T01:24:54.396Z,92607.94
2022-12-11T01:26:56.067Z,92618.56
2022-12-11T01:28:57.788Z,92563.19
2022-12-11T01:30:59.490Z,92567.78
2022-12-11T01:33:01.351Z,92543.75
2022-12-11T01:35:05.580Z,92548.25
2022-12-11T01:37:07.254Z,92543.06
2022-12-11T01:39:09.192Z,92548.03
2022-12-11T01:41:11.184Z,92536.03
2022-12-11T01:43:12.774Z,92530.34
2022-12-11T01:45:40.390Z,92519.13
2022-12-11T01:47:42.062Z,92507.16
2022-12-11T01:49:44.006Z,92501.75
2022-12-11T01:52:10.512Z,92560.94
2022-12-11T01:54:13.878Z,92551.84
2022-12-11T01:56:15.565Z,92567.44
2022-12-11T01:58:18.581Z,92508.69
2022-12-11T02:00:20.763Z,92556.81
2022-12-11T02:02:28.688Z,92537.38
2022-12-11T02:04:31.183Z,92543.25
2022-12-11T02:06:41.825Z,92536.44
2022-12-11T02:08:43.405Z,92551.00
2022-12-11T02:11:10.155Z,92544.19
2022-12-11T02:13:22.284Z,92495.34
2022-12-11T02:15:30.819Z,92552.34
2022-12-11T02:17:48.230Z,92475.03
2022-12-11T02:20:11.665Z,92454.00
2022-12-11T02:22:39.470Z,92445.78
2022-12-11T02:24:56.049Z,92422.25
2022-12-11T02:27:14.823Z,92425.09
2022-12-11T02:29:21.381Z,92399.09
2022-12-11T02:31:50.933Z,92402.97
2022-12-11T02:34:01.577Z,92428.25
2022-12-11T02:36:05.276Z,92451.66
2022-12-11T02:38:21.097Z,92444.66
2022-12-11T02:40:26.023Z,92443.63
2022-12-11T02:42:31.075Z,92465.56
2022-12-11T02:44:34.474Z,92436.72
2022-12-11T02:46:36.927Z,92463.03
2022-12-11T02:48:40.889Z,92460.66
2022-12-11T02:50:47.806Z,92468.00
2022-12-11T02:52:51.951Z,92474.25
2022-12-11T02:54:56.747Z,92495.09
2022-12-11T02:57:36.515Z,92487.28
2022-12-11T02:59:43.190Z,92500.22
2022-12-11T03:01:46.427Z,92502.41
2022-12-11T03:03:51.353Z,92484.66
2022-12-11T03:05:53.444Z,92453.34
2022-12-11T03:07:55.201Z,92478.72
2022-12-11T03:09:57.810Z,92474.25
2022-12-11T03:11:59.388Z,92470.44
2022-12-11T03:14:03.016Z,92460.25
2022-12-11T03:16:12.549Z,92482.09
2022-12-11T03:18:21.656Z,92455.06
2022-12-11T03:20:43.369Z,92475.88
2022-12-11T03:23:05.341Z,92477.97
2022-12-11T03:25:15.535Z,92475.09
2022-12-11T03:27:43.035Z,92455.31
2022-12-11T03:29:58.465Z,92472.03
2022-12-11T03:32:09.713Z,92484.06
2022-12-11T03:34:19.348Z,92473.75
2022-12-11T03:36:25.729Z,92474.44
2022-12-11T03:38:38.865Z,92487.47
2022-12-11T03:40:42.499Z,92498.56
2022-12-11T03:42:45.574Z,92510.34
2022-12-11T03:44:49.693Z,92509.31
2022-12-11T03:46:52.872Z,92516.75
2022-12-11T03:48:56.973Z,92532.47
2022-12-11T03:51:04.410Z,92502.94
2022-12-11T03:53:06.659Z,92533.03
2022-12-11T03:55:09.546Z,92549.63
2022-12-11T03:57:14.300Z,92557.28
2022-12-11T03:59:16.148Z,92549.72
2022-12-11T04:01:17.983Z,92552.09
2022-12-11T04:03:19.665Z,92584.63
2022-12-11T04:05:21.321Z,92552.22
2022-12-11T04:07:22.983Z,92578.56
2022-12-11T04:09:24.513Z,92590.69
2022-12-11T04:11:35.245Z,92560.94
2022-12-11T04:13:37.439Z,92572.88
2022-12-11T04:15:40.427Z,92585.47
2022-12-11T04:18:00.656Z,92572.16
2022-12-11T04:20:21.451Z,92590.47
2022-12-11T04:22:41.281Z,92600.84
2022-12-11T04:24:42.895Z,92608.28
2022-12-11T04:26:46.557Z,92589.28
2022-12-11T04:28:49.772Z,92605.78
2022-12-11T04:30:51.484Z,92603.22
2022-12-11T04:32:54.731Z,92599.94
2022-12-11T04:34:56.336Z,92588.47
2022-12-11T04:36:58.401Z,92620.97
2022-12-11T04:39:00.229Z,92603.44
2022-12-11T04:41:04.146Z,92611.34
2022-12-11T04:43:06.007Z,92603.69
2022-12-11T04:45:09.251Z,92613.53
2022-12-11T04:47:11.138Z,92632.69
2022-12-11T04:49:12.800Z,92638.50
2022-12-11T04:51:14.947Z,92641.38
2022-12-11T04:53:16.568Z,92621.56
2022-12-11T04:55:18.418Z,92640.91
2022-12-11T04:57:21.642Z,92640.44
2022-12-11T04:59:23.258Z,92650.09
2022-12-11T05:01:24.903Z,92631.72
2022-12-11T05:03:26.888Z,92637.22
2022-12-11T05:05:28.462Z,92626.59
2022-12-11T05:07:30.159Z,92653.75
2022-12-11T05:09:31.885Z,92612.16
2022-12-11T05:11:33.718Z,92650.66
2022-12-11T05:13:36.117Z,92608.03
2022-12-11T05:15:40.792Z,92610.78
2022-12-11T05:17:42.594Z,92603.44
2022-12-11T05:19:44.264Z,92605.53
2022-12-11T05:21:45.897Z,92596.56
2022-12-11T05:23:47.495Z,92601.72
2022-12-11T05:25:56.703Z,92615.50
2022-12-11T05:27:58.430Z,92602.88
2022-12-11T05:30:00.034Z,92602.41
2022-12-11T05:32:01.811Z,92592.13
2022-12-11T05:34:03.536Z,92596.56
2022-12-11T05:36:09.109Z,92601.63
2022-12-11T05:38:10.702Z,92611.69
2022-12-11T05:40:12.875Z,92611.44
2022-12-11T05:42:14.629Z,92608.00
2022-12-11T05:44:16.182Z,92618.22
2022-12-11T05:46:19.197Z,92607.69
2022-12-11T05:48:20.860Z,92593.47
2022-12-11T05:50:22.456Z,92611.13
2022-12-11T05:52:24.159Z,92585.47
2022-12-11T05:54:25.774Z,92582.81
2022-12-11T05:56:32.552Z,92589.91
2022-12-11T05:58:34.811Z,92587.72
2022-12-11T06:00:36.480Z,92580.06
2022-12-11T06:02:38.179Z,92612.28
2022-12-11T06:04:39.852Z,92568.81
2022-12-11T06:06:43.835Z,92570.81
2022-12-11T06:08:45.456Z,92588.09
2022-12-11T06:10:50.874Z,92552.72
2022-12-11T06:12:52.522Z,92545.03
2022-12-11T06:14:54.156Z,92595.03
2022-12-11T06:16:55.761Z,92592.72
2022-12-11T06:18:58.516Z,92575.50
2022-12-11T06:21:00.453Z,92568.59
2022-12-11T06:23:02.411Z,92607.22
2022-12-11T06:25:04.424Z,92568.31
2022-12-11T06:27:06.095Z,92640.06
2022-12-11T06:29:12.534Z,92593.50
2022-12-11T06:31:15.636Z,92611.94
2022-12-11T06:33:17.469Z,92595.41
2022-12-11T06:35:19.143Z,92617.72
2022-12-11T06:37:20.766Z,92591.34
2022-12-11T06:39:22.372Z,92621.06
2022-12-11T06:41:23.990Z,92628.19
2022-12-11T06:43:25.851Z,92645.38
2022-12-11T06:45:27.559Z,92610.78
2022-12-11T06:47:29.820Z,92606.13
2022-12-11T06:49:31.477Z,92640.00
2022-12-11T06:51:33.178Z,92623.56
2022-12-11T06:53:35.265Z,92638.91
2022-12-11T06:55:37.230Z,92628.69
2022-12-11T06:57:38.773Z,92607.59
2022-12-11T06:59:40.478Z,92632.69
2022-12-11T07:01:42.142Z,92639.78
2022-12-11T07:03:44.140Z,92655.72
2022-12-11T07:05:45.768Z,92649.38
2022-12-11T07:07:47.505Z,92633.25
2022-12-11T07:09:49.496Z,92636.75
2022-12-11T07:11:51.904Z,92654.50
2022-12-11T07:13:53.554Z,92651.72
2022-12-11T07:15:55.133Z,92650.41
2022-12-11T07:17:56.764Z,92667.72
2022-12-11T07:19:58.380Z,92642.72
2022-12-11T07:21:59.947Z,92643.94
2022-12-11T07:24:01.838Z,92661.44
2022-12-11T07:26:08.366Z,92644.34
2022-12-11T07:28:13.653Z,92627.63
2022-12-11T07:30:36.734Z,92628.56
2022-12-11T07:32:38.448Z,92646.66
2022-12-11T07:34:40.169Z,92651.63
2022-12-11T07:36:43.640Z,92660.34
2022-12-11T07:38:45.931Z,92671.69
2022-12-11T07:40:47.553Z,92660.66
2022-12-11T07:42:49.075Z,92674.72
2022-12-11T07:44:50.738Z,92699.81
2022-12-11T07:46:52.463Z,92661.34
2022-12-11T07:48:54.303Z,92669.06
2022-12-11T07:50:56.124Z,92703.44
2022-12-11T07:52:57.760Z,92706.53
2022-12-11T07:54:59.400Z,92684.84
2022-12-11T07:57:01.155Z,92681.22
2022-12-11T07:59:05.100Z,92655.44
2022-12-11T08:01:11.955Z,92687.91
2022-12-11T08:03:13.583Z,92713.22
2022-12-11T08:05:15.240Z,92681.06
2022-12-11T08:07:16.823Z,92662.13
2022-12-11T08:09:22.556Z,92673.44
2022-12-11T08:11:24.693Z,92695.75
2022-12-11T08:13:26.367Z,92678.19
2022-12-11T08:15:28.007Z,92672.00
2022-12-11T08:17:32.879Z,92702.16
2022-12-11T08:19:38.301Z,92714.78
2022-12-11T08:21:40.413Z,92728.16
2022-12-11T08:23:42.110Z,92706.59
2022-12-11T08:25:43.709Z,92701.88
2022-12-11T08:27:45.273Z,92688.16
2022-12-11T08:29:47.611Z,92724.09
2022-12-11T08:31:50.137Z,92735.31
2022-12-11T08:33:52.180Z,92733.16
2022-12-11T08:35:53.838Z,92715.91
2022-12-11T08:37:55.393Z,92699.94
2022-12-11T08:39:57.039Z,92724.88
2022-12-11T08:41:59.024Z,92700.72
2022-12-11T08:44:01.812Z,92689.91
2022-12-11T08:46:03.634Z,92695.59
2022-12-11T08:48:06.073Z,92703.09
2022-12-11T08:50:07.984Z,92732.53
2022-12-11T08:52:09.762Z,92697.56
2022-12-11T08:54:11.853Z,92723.78
2022-12-11T08:56:16.140Z,92720.72
2022-12-11T08:58:17.675Z,92726.97
2022-12-11T09:00:19.593Z,92720.78
2022-12-11T09:02:21.242Z,92722.34
2022-12-11T09:04:23.524Z,92714.88
2022-12-11T09:06:27.005Z,92699.06
2022-12-11T09:08:28.650Z,92697.66
2022-12-11T09:10:30.230Z,92706.56
2022-12-11T09:12:34.169Z,92701.03
2022-12-11T09:14:36.126Z,92687.53
2022-12-11T09:16:40.717Z,92679.78
2022-12-11T09:18:43.181Z,92687.09
2022-12-11T09:20:44.800Z,92697.28
2022-12-11T09:22:46.451Z,92702.31
2022-12-11T09:24:48.080Z,92696.16
2022-12-11T09:26:49.702Z,92726.72
2022-12-11T09:28:53.218Z,92684.56
2022-12-11T09:30:55.095Z,92688.72
2022-12-11T09:32:56.800Z,92712.00
2022-12-11T09:34:58.446Z,92684.84
2022-12-11T09:37:00.126Z,92685.47
2022-12-11T09:39:04.371Z,92670.03
2022-12-11T09:41:21.585Z,92679.50
2022-12-11T09:43:39.020Z,92677.25
2022-12-11T09:45:40.652Z,92678.56
2022-12-11T09:47:47.297Z,92670.34
2022-12-11T09:49:55.503Z,92646.00
2022-12-11T09:52:11.698Z,92678.28
2022-12-11T09:54:14.411Z,92684.00
2022-12-11T09:56:22.043Z,92652.56
2022-12-11T09:58:41.653Z,92672.84
2022-12-11T10:00:48.381Z,92671.59
2022-12-11T10:03:27.548Z,92677.00
2022-12-11T10:05:41.542Z,92666.41
2022-12-11T10:07:52.209Z,92677.00
2022-12-11T10:10:05.584Z,92661.47
2022-12-11T10:12:38.656Z,92666.75
2022-12-11T10:15:06.467Z,92670.09
2022-12-11T10:17:31.910Z,92670.31
2022-12-11T10:19:33.716Z,92664.53
2022-12-11T10:21:42.299Z,92670.94
2022-12-11T10:23:47.102Z,92664.19
2022-12-11T10:26:04.492Z,92669.47
2022-12-11T10:28:17.301Z,92660.53
2022-12-11T10:30:34.445Z,92680.06
2022-12-11T10:33:08.596Z,92681.75
2022-12-11T10:35:18.621Z,92672.41
2022-12-11T10:37:20.237Z,92672.84
2022-12-11T10:39:22.670Z,92641.31
2022-12-11T10:41:38.101Z,92645.78
2022-12-11T10:43:43.471Z,92654.84
2022-12-11T10:45:54.964Z,92653.25
2022-12-11T10:48:05.048Z,92656.06
2022-12-11T10:50:06.836Z,92649.19
2022-12-11T10:52:13.573Z,92660.94
2022-12-11T10:54:41.650Z,92637.53
2022-12-11T10:56:46.453Z,92643.44
2022-12-11T10:58:50.434Z,92630.31
2022-12-11T11:01:15.181Z,92639.34
2022-12-11T11:03:27.247Z,92631.88
2022-12-11T11:05:29.097Z,92630.59
2022-12-11T11:07:31.579Z,92636.38
2022-12-11T11:09:36.857Z,92640.97
2022-12-11T11:11:39.433Z,92643.00
2022-12-11T11:13:41.121Z,92627.22
2022-12-11T11:15:43.103Z,92630.72
2022-12-11T11:17:55.518Z,92625.50
2022-12-11T11:20:05.075Z,92627.53
2022-12-11T11:22:15.004Z,92623.03
2022-12-11T11:24:35.772Z,92621.44
2022-12-11T11:27:11.560Z,92626.41
2022-12-11T11:28:59.352Z,92628.81
2022-12-11T11:31:12.239Z,92627.34
2022-12-11T11:33:21.392Z,92628.50
2022-12-11T11:35:28.731Z,92626.59
2022-12-11T11:37:34.415Z,92619.31
2022-12-11T11:39:38.619Z,92616.53
2022-12-11T11:42:00.986Z,92618.56
2022-12-11T11:44:05.358Z,92619.78
2022-12-11T11:46:36.717Z,92615.34
2022-12-11T11:49:06.218Z,92623.03
2022-12-11T11:51:18.509Z,92617.25
2022-12-11T11:53:30.499Z,92602.31
2022-12-11T11:55:42.317Z,92603.72
2022-12-11T11:57:49.862Z,92608.19
2022-12-11T11:59:56.260Z,92598.50
2022-12-11T12:01:58.231Z,92599.16
2022-12-11T12:04:01.643Z,92613.81
2022-12-11T12:06:18.718Z,92606.69
2022-12-11T12:08:29.464Z,92601.19
2022-12-11T12:10:34.153Z,92604.56
2022-12-11T12:12:44.021Z,92605.25
2022-12-11T12:15:20.899Z,92605.75
2022-12-11T12:17:55.454Z,92603.03
2022-12-11T12:20:12.174Z,92621.81
2022-12-11T12:22:25.958Z,92626.78
2022-12-11T12:25:09.339Z,92613.56
2022-12-11T12:27:49.905Z,92613.88
2022-12-11T12:29:53.718Z,92620.59
2022-12-11T12:32:29.183Z,92635.94
2022-12-11T12:34:42.504Z,92646.28
2022-12-11T12:37:05.326Z,92649.50
2022-12-11T12:39:18.758Z,92670.00
2022-12-11T12:41:46.724Z,92679.34
2022-12-11T12:44:07.411Z,92674.91
2022-12-11T12:46:24.837Z,92694.59
2022-12-11T12:48:27.683Z,92684.28
2022-12-11T12:50:39.162Z,92694.75
2022-12-11T12:52:41.715Z,92692.91
2022-12-11T12:55:05.951Z,92721.44
2022-12-11T12:57:08.018Z,92718.97
2022-12-11T12:59:22.733Z,92716.97
2022-12-11T13:01:26.155Z,92717.00
2022-12-11T13:03:36.717Z,92731.59
2022-12-11T13:05:42.501Z,92714.25
2022-12-11T13:07:54.246Z,92722.38
2022-12-11T13:10:06.998Z,92731.69
2022-12-11T13:12:15.980Z,92750.94
2022-12-11T13:14:17.652Z,92743.59
2022-12-11T13:16:19.284Z,92771.66
2022-12-11T13:18:39.349Z,92763.00
2022-12-11T13:20:51.347Z,92769.63
2022-12-11T13:23:12.527Z,92785.38
2022-12-11T13:25:22.199Z,92781.13
2022-12-11T13:27:26.685Z,92776.47
2022-12-11T13:29:42.138Z,92777.72
2022-12-11T13:31:45.598Z,92797.31
2022-12-11T13:33:51.825Z,92790.06
2022-12-11T13:36:41.916Z,92794.38
2022-12-11T13:38:49.471Z,92807.28
2022-12-11T13:40:54.161Z,92806.22
2022-12-11T13:42:59.048Z,92834.56
2022-12-11T13:45:01.042Z,92819.19
2022-12-11T13:47:03.824Z,92832.09
2022-12-11T13:49:07.319Z,92846.47
2022-12-11T13:51:16.760Z,92847.09
2022-12-11T13:53:19.384Z,92858.84
2022-12-11T13:55:25.791Z,92858.97
2022-12-11T13:57:31.124Z,92860.72
2022-12-11T13:59:36.421Z,92871.53
2022-12-11T14:01:38.132Z,92881.13
2022-12-11T14:03:57.843Z,92885.38
2022-12-11T14:06:01.514Z,92882.06
2022-12-11T14:08:10.382Z,92892.63
2022-12-11T14:10:15.140Z,92880.34
2022-12-11T14:12:19.862Z,92906.13
2022-12-11T14:14:29.641Z,92897.75
2022-12-11T14:16:31.345Z,92919.66
2022-12-11T14:18:35.046Z,92916.84
2022-12-11T14:20:36.757Z,92908.63
2022-12-11T14:22:38.426Z,92922.06
2022-12-11T14:24:55.215Z,92927.69
2022-12-11T14:26:57.834Z,92937.47
2022-12-11T14:28:59.472Z,92967.59
2022-12-11T14:31:02.202Z,92937.63
2022-12-11T14:33:05.400Z,92926.78
2022-12-11T14:35:12.929Z,92937.91
2022-12-11T14:37:16.483Z,92941.84
2022-12-11T14:39:23.032Z,92950.06
2022-12-11T14:41:36.598Z,92957.59
2022-12-11T14:43:43.299Z,92954.25
2022-12-11T14:45:47.531Z,92973.34
2022-12-11T14:47:50.494Z,92973.88
2022-12-11T14:49:55.493Z,92964.59
2022-12-11T14:51:58.380Z,92964.91
2022-12-11T14:54:00.334Z,92982.91
2022-12-11T14:56:05.238Z,92969.34
2022-12-11T14:58:23.930Z,92977.13
2022-12-11T15:00:35.991Z,92976.06
2022-12-11T15:02:37.668Z,92977.38
2022-12-11T15:04:39.380Z,92986.22
2022-12-11T15:06:46.448Z,92979.50
2022-12-11T15:08:48.214Z,92977.72
2022-12-11T15:11:09.799Z,92997.28
2022-12-11T15:13:11.474Z,93002.28
2022-12-11T15:15:15.531Z,93009.91
2022-12-11T15:17:18.770Z,92997.91
2022-12-11T15:19:33.252Z,93013.50
2022-12-11T15:21:36.251Z,93002.75
2022-12-11T15:23:53.712Z,93008.09
2022-12-11T15:25:58.128Z,93017.19
2022-12-11T15:28:00.861Z,93018.19
2022-12-11T15:30:15.759Z,93020.81
2022-12-11T15:32:19.112Z,93024.22
2022-12-11T15:34:23.153Z,93024.28
2022-12-11T15:36:24.775Z,93020.34
2022-12-11T15:38:39.605Z,93016.31
2022-12-11T15:40:41.227Z,93023.34
2022-12-11T15:42:43.062Z,93023.81
2022-12-11T15:44:44.898Z,93033.84
2022-12-11T15:46:46.522Z,93032.50
2022-12-11T15:48:49.535Z,93034.28
2022-12-11T15:50:51.284Z,93026.22
2022-12-11T15:52:54.393Z,93033.22
2022-12-11T15:54:55.963Z,93027.69
2022-12-11T15:56:58.397Z,93030.44
2022-12-11T15:59:06.929Z,93028.50
2022-12-11T16:01:08.959Z,93036.22
2022-12-11T16:03:14.962Z,93044.66
2022-12-11T16:05:16.723Z,93062.22
2022-12-11T16:07:23.007Z,93053.91
2022-12-11T16:09:24.738Z,93066.59
2022-12-11T16:11:26.502Z,93061.56
2022-12-11T16:13:28.194Z,93071.66
2022-12-11T16:15:30.364Z,93081.56
2022-12-11T16:17:32.049Z,93087.38
2022-12-11T16:19:34.605Z,93088.88
2022-12-11T16:21:36.212Z,93100.06
2022-12-11T16:23:37.808Z,93106.56
2022-12-11T16:25:41.405Z,93108.66
2022-12-11T16:27:43.305Z,93120.81
2022-12-11T16:29:45.045Z,93115.47
2022-12-11T16:31:46.736Z,93117.56
2022-12-11T16:33:48.457Z,93105.09
2022-12-11T16:35:50.149Z,93102.16
2022-12-11T16:37:53.282Z,93102.16
2022-12-11T16:39:55.076Z,93101.81
2022-12-11T16:41:56.605Z,93107.34
2022-12-11T16:44:01.466Z,93111.03
2022-12-11T16:46:03.223Z,93097.56
2022-12-11T16:48:05.468Z,93097.38
2022-12-11T16:50:07.631Z,93101.25
2022-12-11T16:52:09.448Z,93106.63
2022-12-11T16:54:11.735Z,93106.00
2022-12-11T16:56:13.292Z,93117.03
2022-12-11T16:58:19.935Z,93112.03
2022-12-11T17:00:21.531Z,93115.28
2022-12-11T17:02:23.305Z,93107.13
2022-12-11T17:04:25.004Z,93110.69
2022-12-11T17:06:27.381Z,93118.84
2022-12-11T17:08:29.151Z,93133.59
2022-12-11T17:10:30.793Z,93127.72
2022-12-11T17:12:32.475Z,93127.41
2022-12-11T17:14:34.362Z,93127.03
2022-12-11T17:16:35.927Z,93135.81
2022-12-11T17:18:37.661Z,93132.91
2022-12-11T17:20:54.732Z,93126.09
2022-12-11T17:22:56.368Z,93129.69
2022-12-11T17:25:04.604Z,93147.03
2022-12-11T17:27:09.220Z,93166.56
2022-12-11T17:29:11.960Z,93169.94
2022-12-11T17:31:16.723Z,93162.03
2022-12-11T17:33:18.869Z,93148.88
2022-12-11T17:35:20.613Z,93137.50
2022-12-11T17:37:22.369Z,93140.84
2022-12-11T17:39:24.203Z,93143.06
2022-12-11T17:41:25.778Z,93136.56
2022-12-11T17:43:27.405Z,93135.47
2022-12-11T17:45:29.075Z,93139.59
2022-12-11T17:47:30.650Z,93126.41
2022-12-11T17:49:32.685Z,93138.84
2022-12-11T17:51:46.340Z,93137.81
2022-12-11T17:53:48.044Z,93137.78
2022-12-11T17:55:52.132Z,93130.22
2022-12-11T17:57:53.899Z,93129.44
2022-12-11T17:59:56.156Z,93122.50
2022-12-11T18:01:58.152Z,93128.41
2022-12-11T18:04:01.517Z,93138.31
2022-12-11T18:06:06.529Z,93134.91
2022-12-11T18:08:08.190Z,93138.44
2022-12-11T18:10:10.166Z,93149.00
2022-12-11T18:12:12.035Z,93141.22
2022-12-11T18:14:17.120Z,93149.16
2022-12-11T18:16:32.146Z,93146.88
2022-12-11T18:18:34.184Z,93153.38
2022-12-11T18:20:37.690Z,93146.06
2022-12-11T18:22:39.315Z,93159.19
2022-12-11T18:24:40.901Z,93148.84
2022-12-11T18:26:45.151Z,93146.94
2022-12-11T18:28:47.907Z,93151.00
2022-12-11T18:30:49.851Z,93139.50
2022-12-11T18:32:51.721Z,93143.25
2022-12-11T18:34:53.436Z,93147.88
2022-12-11T18:36:55.009Z,93138.06
2022-12-11T18:38:56.734Z,93155.63
2022-12-11T18:40:58.401Z,93162.25
2022-12-11T18:43:00.079Z,93153.03
2022-12-11T18:45:02.227Z,93156.50
2022-12-11T18:47:03.987Z,93166.31
2022-12-11T18:49:06.530Z,93163.03
2022-12-11T18:51:13.326Z,93168.22
2022-12-11T18:53:15.147Z,93169.41
2022-12-11T18:55:16.780Z,93179.78
2022-12-11T18:57:18.521Z,93172.59
2022-12-11T18:59:20.194Z,93170.69
2022-12-11T19:01:24.699Z,93172.66
2022-12-11T19:03:26.353Z,93165.41
2022-12-11T19:05:29.067Z,93165.69
2022-12-11T19:07:49.103Z,93155.59
2022-12-11T19:09:50.944Z,93170.53
2022-12-11T19:11:52.595Z,93158.25
2022-12-11T19:14:10.629Z,93184.72
2022-12-11T19:16:20.971Z,93176.19
2022-12-11T19:18:22.661Z,93185.66
2022-12-11T19:20:48.173Z,93192.66
2022-12-11T19:22:46.072Z,93184.06
2022-12-11T19:24:47.789Z,93181.53
2022-12-11T19:26:49.854Z,93190.94
2022-12-11T19:28:53.872Z,93195.94
2022-12-11T19:30:55.618Z,93195.44
2022-12-11T19:32:58.453Z,93201.13
2022-12-11T19:35:00.135Z,93204.19
2022-12-11T19:37:01.728Z,93215.56
2022-12-11T19:39:07.094Z,93215.44
2022-12-11T19:41:20.657Z,93224.38
2022-12-11T19:43:22.478Z,93228.25
2022-12-11T19:45:24.204Z,93231.97
2022-12-11T19:47:25.786Z,93232.78
2022-12-11T19:49:27.481Z,93230.97
2022-12-11T19:51:34.070Z,93240.25
2022-12-11T19:53:36.316Z,93241.88
2022-12-11T19:55:38.017Z,93240.47
2022-12-11T19:57:39.745Z,93232.19
2022-12-11T19:59:41.411Z,93229.91
2022-12-11T20:01:43.926Z,93228.94
2022-12-11T20:03:45.626Z,93225.84
2022-12-11T20:05:47.175Z,93225.22
2022-12-11T20:07:49.194Z,93210.28
2022-12-11T20:09:50.936Z,93212.72
2022-12-11T20:11:58.584Z,93216.91
2022-12-11T20:14:00.470Z,93217.41
2022-12-11T20:16:06.437Z,93221.00
2022-12-11T20:18:08.117Z,93205.91
2022-12-11T20:20:10.675Z,93212.72
2022-12-11T20:22:12.409Z,93210.13
2022-12-11T20:24:14.134Z,93215.16
2022-12-11T20:26:18.764Z,93217.91
2022-12-11T20:28:20.440Z,93215.16
2022-12-11T20:30:23.713Z,93213.38
2022-12-11T20:32:25.786Z,93225.06
2022-12-11T20:34:27.640Z,93220.22
2022-12-11T20:36:29.332Z,93227.00
2022-12-11T20:38:34.413Z,93214.66
2022-12-11T20:40:36.664Z,93213.88
2022-12-11T20:42:38.366Z,93213.06
2022-12-11T20:44:42.809Z,93216.63
2022-12-11T20:46:48.970Z,93220.66
2022-12-11T20:48:50.957Z,93219.03
2022-12-11T20:50:52.612Z,93212.41
2022-12-11T20:52:54.268Z,93219.03
2022-12-11T20:54:56.167Z,93224.91
2022-12-11T20:56:57.747Z,93225.69
2022-12-11T20:58:59.871Z,93221.50
2022-12-11T21:01:01.819Z,93239.31
2022-12-11T21:03:04.249Z,93243.56
2022-12-11T21:05:06.393Z,93241.78
2022-12-11T21:07:09.551Z,93237.72
2022-12-11T21:09:13.889Z,93237.59
2022-12-11T21:11:15.478Z,93235.00
2022-12-11T21:13:17.118Z,93236.63
2022-12-11T21:15:18.826Z,93245.72
2022-12-11T21:17:20.491Z,93238.41
2022-12-11T21:19:22.699Z,93233.38
2022-12-11T21:21:24.868Z,93236.00
2022-12-11T21:25:45.531Z,93250.44
2022-12-11T21:27:47.110Z,93251.72
2022-12-11T21:29:48.913Z,93249.63
2022-12-11T21:31:51.512Z,93253.19
2022-12-11T21:33:53.672Z,93249.94
2022-12-11T21:35:58.955Z,93245.88
2022-12-11T21:38:00.913Z,93245.38
2022-12-11T21:40:02.656Z,93236.31
2022-12-11T21:42:04.277Z,93243.59
2022-12-11T21:46:28.893Z,93240.50
2022-12-11T21:48:30.843Z,93236.63
2022-12-11T21:50:32.944Z,93231.91
2022-12-11T21:52:34.615Z,93243.25
2022-12-11T21:54:36.163Z,93239.53
2022-12-11T21:56:37.850Z,93242.63
2022-12-11T21:58:41.155Z,93242.47
2022-12-11T22:00:42.937Z,93247.50
2022-12-11T22:02:44.681Z,93253.34
2022-12-11T22:04:47.571Z,93248.94
2022-12-11T22:06:49.327Z,93258.88
2022-12-11T22:08:51.042Z,93250.91
2022-12-11T22:10:52.756Z,93253.19
2022-12-11T22:12:54.576Z,93246.03
2022-12-11T22:14:56.575Z,93248.00
2022-12-11T22:16:58.857Z,93247.84
2022-12-11T22:19:00.669Z,93248.31
2022-12-11T22:21:02.324Z,93249.44
2022-12-11T22:23:04.008Z,93247.50
2022-12-11T22:25:07.969Z,93247.81
2022-12-11T22:27:09.536Z,93245.88
2022-12-11T22:29:11.259Z,93248.78
2022-12-11T22:31:14.527Z,93261.31
2022-12-11T22:33:16.147Z,93267.97
2022-12-11T22:35:17.869Z,93272.16
2022-12-11T22:37:19.532Z,93271.19
2022-12-11T22:39:21.169Z,93274.28
2022-12-11T22:41:26.110Z,93272.19
2022-12-11T22:43:27.704Z,93270.72
2022-12-11T22:45:29.304Z,93274.44
2022-12-11T22:47:30.965Z,93281.41
2022-12-11T22:49:32.697Z,93284.66
2022-12-11T22:51:34.415Z,93288.06
2022-12-11T22:53:36.351Z,93292.97
2022-12-11T22:55:39.903Z,93289.69
2022-12-11T22:57:41.565Z,93284.19
2022-12-11T22:59:43.410Z,93297.81
2022-12-11T23:01:45.008Z,93290.34
2022-12-11T23:03:47.007Z,93297.66
2022-12-11T23:05:48.759Z,93292.63
2022-12-11T23:07:50.535Z,93288.88
2022-12-11T23:09:52.309Z,93296.50
2022-12-11T23:11:55.851Z,93297.47
2022-12-11T23:13:57.939Z,93305.44
2022-12-11T23:15:59.550Z,93304.81
2022-12-11T23:18:01.247Z,93291.66
2022-12-11T23:20:05.708Z,93288.41
2022-12-11T23:22:07.510Z,93297.97
2022-12-11T23:24:09.393Z,93306.72
2022-12-11T23:26:12.475Z,93301.06
2022-12-11T23:28:14.098Z,93300.25
2022-12-11T23:30:16.098Z,93304.13
2022-12-11T23:32:17.824Z,93309.03
2022-12-11T23:34:19.472Z,93301.53
2022-12-11T23:36:21.269Z,93304.41
2022-12-11T23:38:22.887Z,93315.66
2022-12-11T23:40:24.458Z,93313.25
2022-12-11T23:42:26.063Z,93317.66
2022-12-11T23:44:27.660Z,93315.53
2022-12-11T23:46:29.446Z,93326.25
2022-12-11T23:48:31.365Z,93320.63
2022-12-11T23:50:33.124Z,93325.19
2022-12-11T23:52:34.714Z,93332.34
2022-12-11T23:54:36.358Z,93342.41
2022-12-11T23:56:38.969Z,93338.69
2022-12-11T23:58:40.636Z,93331.22
